createdAt,value
2018-09-29T00:01:39.070Z,22.96
2018-09-29T00:04:06.943Z,22.95
2018-09-29T00:06:32.378Z,22.92
2018-09-29T00:08:59.034Z,22.92
2018-09-29T00:11:25.686Z,22.90
2018-09-29T00:13:55.770Z,22.90
2018-09-29T00:16:22.444Z,22.89
2018-09-29T00:18:49.152Z,22.88
2018-09-29T00:21:15.748Z,22.89
2018-09-29T00:23:42.390Z,22.86
2018-09-29T00:26:09.073Z,22.88
2018-09-29T00:28:35.726Z,22.86
2018-09-29T00:31:02.538Z,22.81
2018-09-29T00:33:29.169Z,22.82
2018-09-29T00:35:55.818Z,22.80
2018-09-29T00:38:22.551Z,22.78
2018-09-29T00:40:49.281Z,22.82
2018-09-29T00:43:17.060Z,22.81
2018-09-29T00:45:42.723Z,22.77
2018-09-29T00:48:09.579Z,22.77
2018-09-29T00:50:36.217Z,22.74
2018-09-29T00:53:02.859Z,22.76
2018-09-29T00:55:29.515Z,22.72
2018-09-29T00:57:56.177Z,22.73
2018-09-29T01:00:22.866Z,22.75
2018-09-29T01:02:49.514Z,22.71
2018-09-29T01:05:16.286Z,22.69
2018-09-29T01:07:42.979Z,22.70
2018-09-29T01:10:09.670Z,22.68
2018-09-29T01:12:36.399Z,22.68
2018-09-29T01:15:03.090Z,22.66
2018-09-29T01:17:29.827Z,22.66
2018-09-29T01:19:56.550Z,22.67
2018-09-29T01:22:23.199Z,22.66
2018-09-29T01:24:49.837Z,22.67
2018-09-29T01:27:16.505Z,22.70
2018-09-29T01:29:43.202Z,22.68
2018-09-29T01:32:09.851Z,22.66
2018-09-29T01:34:36.550Z,22.67
2018-09-29T01:37:03.207Z,22.67
2018-09-29T01:39:29.927Z,22.66
2018-09-29T01:41:56.668Z,22.66
2018-09-29T01:44:23.371Z,22.65
2018-09-29T01:46:50.381Z,22.63
2018-09-29T01:49:17.168Z,22.63
2018-09-29T01:51:43.810Z,22.63
2018-09-29T01:54:10.514Z,22.65
2018-09-29T01:56:37.153Z,22.64
2018-09-29T01:59:03.794Z,22.63
2018-09-29T02:01:30.500Z,22.63
2018-09-29T02:03:57.206Z,22.63
2018-09-29T02:06:25.176Z,22.63
2018-09-29T02:08:50.696Z,22.61
2018-09-29T02:11:17.418Z,22.60
2018-09-29T02:13:44.097Z,22.61
2018-09-29T02:16:12.865Z,22.61
2018-09-29T02:18:37.430Z,22.61
2018-09-29T02:21:04.120Z,22.58
2018-09-29T02:23:30.762Z,22.57
2018-09-29T02:25:57.422Z,22.57
2018-09-29T02:28:24.092Z,22.59
2018-09-29T02:30:50.730Z,22.55
2018-09-29T02:33:17.384Z,22.57
2018-09-29T02:35:44.021Z,22.55
2018-09-29T02:38:10.670Z,22.54
2018-09-29T02:40:37.315Z,22.54
2018-09-29T02:43:05.177Z,22.55
2018-09-29T02:45:30.600Z,22.53
2018-09-29T02:47:57.538Z,22.52
2018-09-29T02:50:24.183Z,22.54
2018-09-29T02:52:50.867Z,22.53
2018-09-29T02:55:17.512Z,22.54
2018-09-29T02:57:44.152Z,22.51
2018-09-29T03:00:10.807Z,22.49
2018-09-29T03:02:37.458Z,22.49
2018-09-29T03:05:04.109Z,22.49
2018-09-29T03:07:30.747Z,22.48
2018-09-29T03:09:57.391Z,22.47
2018-09-29T03:12:24.137Z,22.46
2018-09-29T03:14:50.793Z,22.49
2018-09-29T03:17:17.434Z,22.46
2018-09-29T03:19:45.410Z,22.49
2018-09-29T03:22:11.983Z,22.46
2018-09-29T03:24:39.473Z,22.47
2018-09-29T03:27:04.113Z,22.46
2018-09-29T03:29:30.753Z,22.44
2018-09-29T03:31:58.765Z,22.45
2018-09-29T03:36:50.770Z,22.42
2018-09-29T03:39:17.402Z,22.40
2018-09-29T03:41:46.215Z,22.40
2018-09-29T03:44:10.692Z,22.40
2018-09-29T03:46:37.325Z,22.41
2018-09-29T03:49:04.050Z,22.38
2018-09-29T03:51:30.723Z,22.38
2018-09-29T03:53:57.345Z,22.37
2018-09-29T03:56:25.272Z,22.36
2018-09-29T03:58:50.655Z,22.36
2018-09-29T04:01:17.292Z,22.35
2018-09-29T04:03:43.931Z,22.32
2018-09-29T04:06:10.584Z,22.33
2018-09-29T04:08:37.256Z,22.35
2018-09-29T04:11:03.890Z,22.32
2018-09-29T04:15:57.250Z,22.29
2018-09-29T04:18:23.949Z,22.28
2018-09-29T04:20:50.597Z,22.30
2018-09-29T04:23:17.248Z,22.26
2018-09-29T04:25:43.929Z,22.27
2018-09-29T04:28:10.567Z,22.28
2018-09-29T04:30:37.220Z,22.25
2018-09-29T04:33:03.859Z,22.27
2018-09-29T04:35:30.531Z,22.22
2018-09-29T04:38:00.109Z,22.23
2018-09-29T04:40:26.827Z,22.26
2018-09-29T04:42:53.476Z,22.21
2018-09-29T04:45:20.126Z,22.19
2018-09-29T04:47:46.776Z,22.20
2018-09-29T04:50:13.426Z,22.21
2018-09-29T04:52:40.076Z,22.23
2018-09-29T04:55:06.724Z,22.22
2018-09-29T04:57:33.406Z,22.22
2018-09-29T05:00:00.095Z,22.23
2018-09-29T05:02:26.715Z,22.26
2018-09-29T05:04:53.876Z,22.26
2018-09-29T05:07:20.527Z,22.30
2018-09-29T05:09:47.167Z,22.27
2018-09-29T05:12:13.812Z,22.32
2018-09-29T05:14:40.447Z,22.31
2018-09-29T05:17:10.142Z,22.35
2018-09-29T05:19:36.826Z,22.34
2018-09-29T05:22:03.502Z,22.37
2018-09-29T05:24:30.235Z,22.35
2018-09-29T05:26:56.892Z,22.34
2018-09-29T05:29:23.521Z,22.39
2018-09-29T05:31:50.179Z,22.39
2018-09-29T05:34:16.834Z,22.45
2018-09-29T05:36:43.587Z,22.49
2018-09-29T05:39:10.236Z,22.54
2018-09-29T05:41:36.909Z,22.54
2018-09-29T05:44:03.576Z,22.61
2018-09-29T05:46:30.215Z,22.68
2018-09-29T05:48:57.142Z,22.75
2018-09-29T05:51:23.778Z,22.91
2018-09-29T05:53:51.898Z,22.98
2018-09-29T05:56:17.221Z,22.99
2018-09-29T05:58:43.870Z,22.99
2018-09-29T06:01:10.520Z,23.04
2018-09-29T06:03:38.253Z,23.12
2018-09-29T06:06:04.901Z,23.16
2018-09-29T06:08:31.539Z,23.13
2018-09-29T06:10:58.292Z,23.18
2018-09-29T06:13:24.983Z,23.18
2018-09-29T06:15:51.631Z,23.26
2018-09-29T06:18:18.285Z,23.27
2018-09-29T06:20:44.923Z,23.30
2018-09-29T06:23:11.671Z,23.28
2018-09-29T06:25:38.341Z,23.29
2018-09-29T06:28:05.046Z,23.29
2018-09-29T06:30:31.698Z,23.27
2018-09-29T06:32:58.391Z,23.23
2018-09-29T06:35:25.130Z,23.26
2018-09-29T06:37:51.788Z,23.23
2018-09-29T06:40:20.520Z,23.25
2018-09-29T06:42:45.143Z,23.20
2018-09-29T06:45:18.111Z,23.22
2018-09-29T06:47:44.789Z,23.16
2018-09-29T06:50:11.417Z,23.17
2018-09-29T06:52:38.100Z,23.15
2018-09-29T06:55:04.752Z,23.19
2018-09-29T06:57:31.388Z,23.18
2018-09-29T06:59:58.129Z,23.16
2018-09-29T07:02:26.499Z,23.20
2018-09-29T07:04:52.520Z,23.21
2018-09-29T07:07:18.146Z,23.22
2018-09-29T07:09:47.753Z,23.16
2018-09-29T07:12:14.466Z,23.18
2018-09-29T07:14:41.117Z,23.20
2018-09-29T07:17:07.807Z,23.25
2018-09-29T07:19:35.492Z,23.31
2018-09-29T07:22:01.130Z,23.34
2018-09-29T07:24:27.949Z,23.35
2018-09-29T07:26:54.590Z,23.38
2018-09-29T07:29:21.239Z,23.43
2018-09-29T07:31:47.901Z,23.46
2018-09-29T07:34:14.590Z,23.48
2018-09-29T07:36:41.343Z,23.52
2018-09-29T07:39:08.170Z,23.55
2018-09-29T07:41:34.869Z,23.60
2018-09-29T07:44:01.702Z,23.57
2018-09-29T07:46:28.410Z,23.59
2018-09-29T07:48:55.100Z,23.63
2018-09-29T07:51:21.750Z,23.61
2018-09-29T07:53:48.365Z,23.64
2018-09-29T07:56:15.014Z,23.65
2018-09-29T07:58:41.672Z,23.64
2018-09-29T08:01:08.314Z,23.68
2018-09-29T08:03:35.079Z,23.69
2018-09-29T08:06:01.773Z,23.69
2018-09-29T08:08:28.489Z,23.70
2018-09-29T08:10:55.197Z,23.71
2018-09-29T08:13:21.942Z,23.67
2018-09-29T08:15:48.588Z,23.70
2018-09-29T08:18:15.283Z,23.72
2018-09-29T08:20:41.974Z,23.70
2018-09-29T08:23:08.611Z,23.71
2018-09-29T08:25:35.250Z,23.73
2018-09-29T08:28:01.902Z,23.76
2018-09-29T08:30:28.661Z,23.74
2018-09-29T08:32:55.417Z,23.75
2018-09-29T08:35:22.209Z,23.78
2018-09-29T08:37:48.914Z,23.80
2018-09-29T08:40:15.603Z,23.82
2018-09-29T08:42:42.206Z,23.84
2018-09-29T08:45:08.898Z,23.85
2018-09-29T08:47:35.573Z,23.87
2018-09-29T08:50:02.231Z,23.87
2018-09-29T08:52:28.847Z,23.89
2018-09-29T08:54:55.531Z,23.91
2018-09-29T08:57:22.260Z,23.90
2018-09-29T08:59:48.851Z,23.89
2018-09-29T09:02:15.546Z,23.92
2018-09-29T09:04:42.243Z,23.91
2018-09-29T09:07:08.899Z,23.90
2018-09-29T09:09:35.721Z,23.91
2018-09-29T09:12:02.391Z,23.93
2018-09-29T09:14:31.215Z,23.97
2018-09-29T09:16:57.952Z,23.96
2018-09-29T09:19:24.562Z,23.97
2018-09-29T09:21:51.212Z,23.93
2018-09-29T09:24:18.057Z,23.97
2018-09-29T09:26:47.445Z,23.98
2018-09-29T09:29:14.083Z,23.98
2018-09-29T09:31:40.791Z,23.99
2018-09-29T09:34:07.488Z,24.02
2018-09-29T09:36:34.181Z,24.05
2018-09-29T09:39:00.838Z,24.01
2018-09-29T09:41:27.795Z,24.04
2018-09-29T09:43:54.445Z,24.04
2018-09-29T09:46:21.083Z,24.05
2018-09-29T09:48:47.741Z,24.07
2018-09-29T09:51:17.942Z,24.05
2018-09-29T09:53:44.636Z,24.07
2018-09-29T09:56:12.769Z,24.11
2018-09-29T09:58:40.170Z,24.09
2018-09-29T10:01:06.795Z,24.12
2018-09-29T10:03:33.451Z,24.10
2018-09-29T10:06:00.123Z,24.10
2018-09-29T10:08:26.749Z,24.10
2018-09-29T10:10:58.948Z,24.12
2018-09-29T10:13:23.243Z,24.15
2018-09-29T10:15:49.872Z,24.15
2018-09-29T10:18:16.579Z,24.19
2018-09-29T10:20:43.249Z,24.17
2018-09-29T10:23:11.436Z,24.21
2018-09-29T10:25:36.601Z,24.22
2018-09-29T10:28:03.263Z,24.18
2018-09-29T10:30:29.996Z,24.21
2018-09-29T10:32:56.646Z,24.25
2018-09-29T10:35:23.349Z,24.22
2018-09-29T10:37:50.041Z,24.22
2018-09-29T10:40:19.910Z,24.27
2018-09-29T10:42:46.588Z,24.27
2018-09-29T10:45:13.210Z,24.26
2018-09-29T10:47:39.865Z,24.25
2018-09-29T10:50:06.558Z,24.28
2018-09-29T10:52:33.208Z,24.32
2018-09-29T10:54:59.844Z,24.31
2018-09-29T10:57:26.618Z,24.33
2018-09-29T10:59:53.313Z,24.32
2018-09-29T11:02:20.008Z,24.34
2018-09-29T11:07:13.344Z,24.34
2018-09-29T11:09:40.003Z,24.34
2018-09-29T11:12:07.951Z,24.38
2018-09-29T11:14:33.495Z,24.37
2018-09-29T11:17:00.018Z,24.35
2018-09-29T11:19:26.757Z,24.34
2018-09-29T11:21:53.463Z,24.35
2018-09-29T11:24:20.161Z,24.41
2018-09-29T11:26:46.805Z,24.40
2018-09-29T11:29:13.451Z,24.40
2018-09-29T11:31:40.126Z,24.47
2018-09-29T11:34:06.767Z,24.46
2018-09-29T11:36:33.457Z,24.47
2018-09-29T11:39:01.359Z,24.47
2018-09-29T11:41:26.811Z,24.51
2018-09-29T11:43:53.474Z,24.55
2018-09-29T11:46:20.149Z,24.53
2018-09-29T11:48:46.755Z,24.44
2018-09-29T11:51:13.465Z,24.47
2018-09-29T11:53:40.117Z,24.55
2018-09-29T11:56:06.835Z,24.50
2018-09-29T11:58:33.450Z,24.46
2018-09-29T12:01:00.082Z,24.45
2018-09-29T12:03:27.221Z,24.44
2018-09-29T12:05:53.862Z,24.48
2018-09-29T12:08:20.481Z,24.50
2018-09-29T12:10:47.132Z,24.49
2018-09-29T12:13:13.778Z,24.48
2018-09-29T12:15:40.453Z,24.49
2018-09-29T12:18:07.157Z,24.47
2018-09-29T12:20:37.300Z,24.49
2018-09-29T12:23:04.080Z,24.48
2018-09-29T12:25:30.730Z,24.50
2018-09-29T12:27:57.463Z,24.49
2018-09-29T12:30:24.100Z,24.49
2018-09-29T12:32:50.812Z,24.50
2018-09-29T12:35:17.464Z,24.52
2018-09-29T12:37:45.569Z,24.51
2018-09-29T12:40:12.972Z,24.52
2018-09-29T12:42:37.461Z,24.56
2018-09-29T12:45:04.126Z,24.53
2018-09-29T12:47:30.819Z,24.56
2018-09-29T12:49:57.510Z,24.56
2018-09-29T12:52:24.281Z,24.55
2018-09-29T12:54:50.880Z,24.52
2018-09-29T12:57:17.530Z,24.52
2018-09-29T12:59:44.189Z,24.55
2018-09-29T13:02:10.839Z,24.58
2018-09-29T13:04:37.493Z,24.56
2018-09-29T13:07:04.154Z,24.56
2018-09-29T13:09:32.207Z,24.59
2018-09-29T13:11:57.534Z,24.58
2018-09-29T13:14:24.243Z,24.57
2018-09-29T13:16:50.929Z,24.55
2018-09-29T13:19:17.523Z,24.59
2018-09-29T13:21:44.216Z,24.61
2018-09-29T13:24:10.918Z,24.59
2018-09-29T13:26:37.715Z,24.58
2018-09-29T13:29:04.370Z,24.57
2018-09-29T13:31:31.017Z,24.62
2018-09-29T13:34:00.924Z,24.58
2018-09-29T13:36:27.568Z,24.59
2018-09-29T13:38:55.629Z,24.59
2018-09-29T13:41:20.922Z,24.59
2018-09-29T13:43:47.572Z,24.59
2018-09-29T13:46:14.300Z,24.64
2018-09-29T13:48:43.850Z,24.61
2018-09-29T13:51:10.546Z,24.61
2018-09-29T13:53:37.353Z,24.66
2018-09-29T13:56:04.026Z,24.65
2018-09-29T13:58:30.672Z,24.69
2018-09-29T14:00:57.354Z,24.70
2018-09-29T14:03:24.003Z,24.65
2018-09-29T14:05:50.662Z,24.69
2018-09-29T14:08:17.331Z,24.71
2018-09-29T14:10:44.014Z,24.70
2018-09-29T14:13:10.702Z,24.74
2018-09-29T14:15:37.348Z,24.69
2018-09-29T14:18:04.099Z,24.67
2018-09-29T14:20:30.773Z,24.65
2018-09-29T14:22:57.424Z,24.69
2018-09-29T14:25:24.182Z,24.70
2018-09-29T14:27:50.880Z,24.71
2018-09-29T14:30:17.623Z,24.69
2018-09-29T14:32:44.227Z,24.69
2018-09-29T14:35:10.865Z,24.65
2018-09-29T14:37:37.550Z,24.62
2018-09-29T14:40:04.298Z,24.61
2018-09-29T14:42:31.032Z,24.61
2018-09-29T14:44:57.733Z,24.61
2018-09-29T14:47:24.373Z,24.62
2018-09-29T14:49:54.404Z,24.62
2018-09-29T14:52:21.185Z,24.60
2018-09-29T14:54:47.830Z,24.62
2018-09-29T14:57:14.544Z,24.62
2018-09-29T14:59:41.250Z,24.58
2018-09-29T15:02:07.945Z,24.61
2018-09-29T15:04:34.598Z,24.60
2018-09-29T15:07:01.288Z,24.57
2018-09-29T15:09:28.003Z,24.56
2018-09-29T15:11:54.728Z,24.55
2018-09-29T15:14:21.515Z,24.53
2018-09-29T15:16:48.152Z,24.52
2018-09-29T15:19:14.838Z,24.53
2018-09-29T15:21:41.484Z,24.52
2018-09-29T15:24:08.365Z,24.52
2018-09-29T15:26:35.073Z,24.53
2018-09-29T15:29:01.713Z,24.49
2018-09-29T15:31:28.512Z,24.49
2018-09-29T15:33:55.210Z,24.48
2018-09-29T15:36:21.902Z,24.48
2018-09-29T15:38:48.670Z,24.49
2018-09-29T15:41:15.369Z,24.47
2018-09-29T15:43:42.057Z,24.47
2018-09-29T15:46:08.754Z,24.50
2018-09-29T15:48:35.464Z,24.47
2018-09-29T15:51:02.108Z,24.47
2018-09-29T15:53:28.891Z,24.46
2018-09-29T15:55:55.542Z,24.45
2018-09-29T15:58:22.235Z,24.43
2018-09-29T16:00:48.952Z,24.45
2018-09-29T16:03:15.660Z,24.44
2018-09-29T16:05:42.366Z,24.45
2018-09-29T16:08:09.003Z,24.41
2018-09-29T16:10:35.651Z,24.40
2018-09-29T16:13:02.341Z,24.40
2018-09-29T16:15:28.951Z,24.41
2018-09-29T16:17:55.593Z,24.37
2018-09-29T16:20:22.338Z,24.39
2018-09-29T16:22:48.947Z,24.39
2018-09-29T16:25:15.671Z,24.35
2018-09-29T16:27:42.324Z,24.33
2018-09-29T16:30:08.991Z,24.32
2018-09-29T16:32:35.725Z,24.34
2018-09-29T16:35:02.429Z,24.30
2018-09-29T16:37:29.099Z,24.29
2018-09-29T16:39:55.703Z,24.30
2018-09-29T16:42:23.616Z,24.30
2018-09-29T16:44:49.019Z,24.25
2018-09-29T16:47:15.698Z,24.25
2018-09-29T16:49:42.324Z,24.24
2018-09-29T16:52:08.965Z,24.24
2018-09-29T16:54:35.610Z,24.23
2018-09-29T16:57:02.249Z,24.24
2018-09-29T16:59:28.904Z,24.21
2018-09-29T17:01:56.909Z,24.21
2018-09-29T17:04:22.271Z,24.19
2018-09-29T17:06:48.863Z,24.18
2018-09-29T17:09:15.532Z,24.16
2018-09-29T17:11:42.176Z,24.17
2018-09-29T17:14:11.841Z,24.17
2018-09-29T17:16:38.486Z,24.16
2018-09-29T17:19:05.143Z,24.14
2018-09-29T17:21:31.787Z,24.12
2018-09-29T17:23:58.520Z,24.14
2018-09-29T17:26:25.174Z,24.13
2018-09-29T17:28:51.815Z,24.12
2018-09-29T17:31:18.471Z,24.11
2018-09-29T17:33:45.106Z,24.10
2018-09-29T17:36:11.799Z,24.10
2018-09-29T17:38:38.450Z,24.08
2018-09-29T17:41:06.482Z,24.08
2018-09-29T17:43:33.951Z,24.06
2018-09-29T17:45:58.405Z,24.08
2018-09-29T17:48:25.065Z,24.07
2018-09-29T17:50:51.785Z,24.06
2018-09-29T17:53:18.413Z,24.05
2018-09-29T17:55:45.068Z,24.07
2018-09-29T17:58:11.705Z,24.06
2018-09-29T18:00:38.343Z,24.03
2018-09-29T18:03:04.993Z,24.03
2018-09-29T18:05:31.630Z,24.02
2018-09-29T18:07:58.358Z,23.99
2018-09-29T18:10:24.998Z,23.99
2018-09-29T18:12:52.706Z,24.01
2018-09-29T18:15:18.294Z,24.00
2018-09-29T18:17:45.017Z,23.98
2018-09-29T18:20:11.672Z,23.97
2018-09-29T18:22:38.301Z,23.95
2018-09-29T18:25:06.053Z,23.96
2018-09-29T18:27:32.772Z,23.93
2018-09-29T18:29:59.412Z,23.93
2018-09-29T18:32:26.148Z,23.92
2018-09-29T18:34:52.787Z,23.91
2018-09-29T18:37:19.442Z,23.91
2018-09-29T18:39:46.081Z,23.90
2018-09-29T18:42:14.063Z,23.89
2018-09-29T18:44:40.385Z,23.88
2018-09-29T18:47:06.020Z,23.86
2018-09-29T18:49:35.716Z,23.88
2018-09-29T18:52:02.368Z,23.87
2018-09-29T18:54:29.059Z,23.85
2018-09-29T18:56:55.666Z,23.85
2018-09-29T18:59:22.807Z,23.86
2018-09-29T19:01:50.754Z,23.83
2018-09-29T19:04:16.052Z,23.83
2018-09-29T19:06:42.690Z,23.82
2018-09-29T19:09:09.350Z,23.82
2018-09-29T19:11:35.989Z,23.82
2018-09-29T19:14:02.629Z,23.81
2018-09-29T19:16:29.265Z,23.80
2018-09-29T19:18:57.292Z,23.81
2018-09-29T19:21:24.734Z,23.76
2018-09-29T19:23:49.327Z,23.76
2018-09-29T19:26:15.983Z,23.77
2018-09-29T19:28:44.939Z,23.75
2018-09-29T19:31:09.468Z,23.73
2018-09-29T19:33:36.215Z,23.74
2018-09-29T19:36:02.879Z,23.71
2018-09-29T19:38:29.563Z,23.71
2018-09-29T19:40:56.198Z,23.73
2018-09-29T19:43:22.976Z,23.73
2018-09-29T19:45:49.639Z,23.71
2018-09-29T19:48:16.256Z,23.71
2018-09-29T19:50:42.858Z,23.70
2018-09-29T19:53:09.509Z,23.69
2018-09-29T19:55:36.230Z,23.69
2018-09-29T19:58:02.943Z,23.69
2018-09-29T20:00:29.580Z,23.69
2018-09-29T20:02:56.219Z,23.66
2018-09-29T20:05:22.950Z,23.66
2018-09-29T20:07:51.787Z,23.66
2018-09-29T20:10:16.373Z,23.65
2018-09-29T20:12:42.997Z,23.63
2018-09-29T20:15:09.679Z,23.62
2018-09-29T20:17:36.346Z,23.61
2018-09-29T20:20:04.347Z,23.63
2018-09-29T20:22:29.756Z,23.62
2018-09-29T20:24:56.464Z,23.60
2018-09-29T20:27:23.167Z,23.59
2018-09-29T20:29:49.759Z,23.59
2018-09-29T20:32:16.530Z,23.58
2018-09-29T20:34:43.185Z,23.57
2018-09-29T20:37:10.998Z,23.59
2018-09-29T20:39:37.713Z,23.55
2018-09-29T20:42:04.363Z,23.54
2018-09-29T20:44:31.066Z,23.54
2018-09-29T20:46:58.845Z,23.53
2018-09-29T20:49:25.532Z,23.54
2018-09-29T20:51:52.177Z,23.51
2018-09-29T20:54:20.742Z,23.50
2018-09-29T20:56:45.523Z,23.49
2018-09-29T20:59:12.178Z,23.50
2018-09-29T21:01:41.038Z,23.47
2018-09-29T21:04:07.694Z,23.46
2018-09-29T21:06:34.399Z,23.48
2018-09-29T21:09:01.192Z,23.46
2018-09-29T21:11:27.808Z,23.45
2018-09-29T21:13:54.517Z,23.45
2018-09-29T21:16:21.127Z,23.46
2018-09-29T21:18:47.776Z,23.46
2018-09-29T21:21:14.478Z,23.44
2018-09-29T21:23:41.115Z,23.44
2018-09-29T21:26:07.852Z,23.45
2018-09-29T21:28:34.522Z,23.42
2018-09-29T21:31:01.204Z,23.42
2018-09-29T21:33:27.805Z,23.42
2018-09-29T21:35:55.881Z,23.41
2018-09-29T21:38:21.121Z,23.42
2018-09-29T21:40:47.768Z,23.39
2018-09-29T21:43:14.486Z,23.38
2018-09-29T21:45:41.232Z,23.37
2018-09-29T21:48:07.862Z,23.37
2018-09-29T21:50:34.531Z,23.35
2018-09-29T21:53:01.262Z,23.38
2018-09-29T21:55:27.877Z,23.37
2018-09-29T21:57:54.530Z,23.36
2018-09-29T22:00:21.229Z,23.36
2018-09-29T22:02:50.964Z,23.34
2018-09-29T22:05:17.720Z,23.33
2018-09-29T22:07:44.512Z,23.36
2018-09-29T22:10:11.162Z,23.35
2018-09-29T22:12:39.212Z,23.34
2018-09-29T22:15:04.534Z,23.33
2018-09-29T22:17:31.190Z,23.33
2018-09-29T22:19:57.875Z,23.34
2018-09-29T22:22:26.206Z,23.33
2018-09-29T22:24:51.270Z,23.35
2018-09-29T22:27:17.914Z,23.30
2018-09-29T22:29:45.914Z,23.32
2018-09-29T22:32:14.121Z,23.33
2018-09-29T22:34:40.763Z,23.31
2018-09-29T22:37:07.413Z,23.31
2018-09-29T22:39:34.117Z,23.30
2018-09-29T22:42:00.751Z,23.31
2018-09-29T22:44:27.441Z,23.28
2018-09-29T22:46:54.079Z,23.28
2018-09-29T22:49:20.728Z,23.27
2018-09-29T22:51:47.377Z,23.28
2018-09-29T22:54:14.075Z,23.28
2018-09-29T22:56:40.816Z,23.30
2018-09-29T22:59:07.512Z,23.29
2018-09-29T23:01:34.157Z,23.25
2018-09-29T23:04:00.885Z,23.24
2018-09-29T23:06:27.537Z,23.27
2018-09-29T23:08:54.311Z,23.27
2018-09-29T23:11:22.500Z,23.25
2018-09-29T23:13:47.857Z,23.25
2018-09-29T23:16:14.501Z,23.24
2018-09-29T23:18:41.138Z,23.19
2018-09-29T23:21:07.913Z,23.21
2018-09-29T23:23:34.549Z,23.17
2018-09-29T23:26:01.191Z,23.21
2018-09-29T23:28:27.865Z,23.18
2018-09-29T23:30:54.563Z,23.15
2018-09-29T23:33:21.202Z,23.16
2018-09-29T23:35:47.885Z,23.15
2018-09-29T23:38:15.974Z,23.14
2018-09-29T23:40:41.322Z,23.15
2018-09-29T23:43:07.999Z,23.14
2018-09-29T23:45:34.611Z,23.14
2018-09-29T23:48:03.485Z,23.12
2018-09-29T23:50:29.226Z,23.12
2018-09-29T23:52:54.546Z,23.11
2018-09-29T23:55:21.199Z,23.12
2018-09-29T23:57:47.886Z,23.10
